Time;durP1;ratioP1;P1;durP2;ratioP2;P2;SDS_P1;SDS_P2;PMS_P1;PMS_P2;Temp;Humidity;BMP_temperature;BMP_pressure;BME280_temperature;BME280_humidity;BME280_pressure;Samples;Min_cycle;Max_cycle;Signal;HPM_P1;HPM_P2
2022/09/01 00:02:29;;;;;;;5.30;2.67;;;16.60;99.90;;;;;;5096723;28;20513;-48
2022/09/01 00:04:57;;;;;;;3.47;3.07;;;16.60;99.90;;;;;;5096045;28;20461;-51
2022/09/01 00:07:30;;;;;;;3.40;1.97;;;16.60;99.90;;;;;;5097221;28;20442;-52
2022/09/01 00:10:00;;;;;;;3.30;2.40;;;16.60;99.90;;;;;;5099488;28;20435;-52
2022/09/01 00:12:28;;;;;;;3.50;2.93;;;16.60;99.90;;;;;;5099352;28;20467;-52
2022/09/01 00:14:58;;;;;;;3.60;3.30;;;16.60;99.90;;;;;;5100750;28;20829;-48
2022/09/01 00:17:29;;;;;;;4.73;3.37;;;16.60;99.90;;;;;;5101093;28;20435;-51
2022/09/01 00:20:00;;;;;;;4.77;2.87;;;16.60;99.90;;;;;;5100444;28;20893;-54
2022/09/01 00:22:29;;;;;;;4.63;2.73;;;16.60;99.90;;;;;;5100305;28;20459;-51
2022/09/01 00:24:58;;;;;;;3.90;3.10;;;16.50;99.90;;;;;;5100277;28;20761;-56
2022/09/01 00:27:25;;;;;;;4.40;3.10;;;16.50;99.90;;;;;;5101200;28;20456;-50
2022/09/01 00:29:53;;;;;;;4.10;3.50;;;16.50;99.90;;;;;;5099969;28;20442;-51
2022/09/01 00:32:24;;;;;;;8.13;4.23;;;16.40;99.90;;;;;;5100387;28;20435;-57
2022/09/01 00:34:54;;;;;;;4.60;3.70;;;16.30;99.90;;;;;;5101040;28;20870;-54
2022/09/01 00:37:23;;;;;;;4.47;3.90;;;16.20;99.90;;;;;;5099871;28;20495;-48
2022/09/01 00:39:52;;;;;;;4.53;3.17;;;16.20;99.90;;;;;;5100402;28;20464;-52
2022/09/01 00:42:21;;;;;;;3.90;3.50;;;16.10;99.90;;;;;;5100466;28;20755;-57
2022/09/01 00:44:48;;;;;;;4.13;3.73;;;16.00;99.90;;;;;;5100247;28;20456;-53
2022/09/01 00:47:16;;;;;;;4.37;3.57;;;15.90;99.90;;;;;;5099870;28;20491;-54
2022/09/01 00:49:47;;;;;;;4.57;3.63;;;15.90;99.90;;;;;;5100826;28;20461;-52
2022/09/01 00:52:17;;;;;;;7.80;3.63;;;15.80;99.90;;;;;;5099812;28;20492;-54
2022/09/01 00:54:49;;;;;;;5.40;4.03;;;15.70;99.90;;;;;;5099279;28;20535;-51
2022/09/01 00:57:19;;;;;;;4.87;3.70;;;15.60;1.00;;;;;;5099628;28;20460;-48
2022/09/01 00:59:53;;;;;;;4.27;3.27;;;15.60;1.00;;;;;;5100569;28;20427;-48
2022/09/01 01:02:23;;;;;;;4.40;3.50;;;15.60;1.00;;;;;;5099477;28;20475;-50
2022/09/01 01:04:51;;;;;;;8.60;3.97;;;15.50;1.00;;;;;;5100414;28;20877;-57
2022/09/01 01:07:22;;;;;;;4.30;3.50;;;15.50;1.00;;;;;;5099187;28;20456;-55
2022/09/01 01:09:54;;;;;;;4.57;3.50;;;15.50;1.00;;;;;;5099822;28;20730;-53
2022/09/01 01:12:22;;;;;;;5.90;3.27;;;15.50;1.00;;;;;;5099297;28;20427;-51
2022/09/01 01:14:54;;;;;;;3.93;3.50;;;15.50;1.00;;;;;;5100109;28;20502;-52
2022/09/01 01:17:23;;;;;;;6.07;3.67;;;15.50;1.00;;;;;;5099994;28;20510;-52
2022/09/01 01:23:04;;;;;;;4.07;3.37;;;15.40;1.00;;;;;;5098163;28;20470;-52
2022/09/01 01:25:38;;;;;;;3.93;3.50;;;15.40;1.00;;;;;;5099761;28;20468;-50
2022/09/01 01:28:14;;;;;;;3.80;3.50;;;15.40;1.00;;;;;;5098910;28;20526;-54
2022/09/01 01:30:50;;;;;;;3.50;3.20;;;15.50;1.00;;;;;;5099670;28;20530;-54
2022/09/01 01:33:21;;;;;;;4.27;3.90;;;15.40;1.00;;;;;;5099090;28;20462;-53
2022/09/01 01:35:50;;;;;;;4.27;3.50;;;15.20;1.00;;;;;;5099003;28;20492;-53
2022/09/01 01:38:21;;;;;;;4.53;4.13;;;15.10;1.00;;;;;;5099741;28;20464;-49
2022/09/01 01:40:54;;;;;;;4.30;3.90;;;15.10;1.00;;;;;;5099349;28;20439;-49
2022/09/01 01:43:27;;;;;;;4.13;3.73;;;15.00;1.00;;;;;;5098878;28;20494;-54
2022/09/01 01:46:01;;;;;;;4.50;3.83;;;15.00;1.00;;;;;;5099029;28;20465;-48
2022/09/01 01:48:33;;;;;;;4.50;3.30;;;15.00;1.00;;;;;;5098749;28;20467;-50
2022/09/01 01:51:01;;;;;;;4.07;3.67;;;15.10;1.00;;;;;;5098711;28;20481;-51
2022/09/01 01:53:29;;;;;;;4.93;4.13;;;15.20;1.00;;;;;;5098245;28;20488;-52
2022/09/01 01:55:58;;;;;;;4.00;3.60;;;15.20;1.00;;;;;;5097906;28;20494;-52
2022/09/01 01:58:27;;;;;;;5.43;3.97;;;15.20;1.00;;;;;;5099109;28;20897;-53
2022/09/01 02:00:57;;;;;;;4.23;3.13;;;15.30;1.00;;;;;;5099116;28;20456;-51
2022/09/01 02:03:37;;;;;;;4.43;4.03;;;15.30;1.00;;;;;;5098820;28;20841;-49
2022/09/01 02:06:23;;;;;;;10.23;3.50;;;15.40;1.00;;;;;;5094041;28;20996;-54
2022/09/01 02:08:56;;;;;;;4.43;3.90;;;15.40;1.00;;;;;;5098682;28;20469;-51
2022/09/01 02:11:28;;;;;;;4.20;3.47;;;15.40;1.00;;;;;;5099241;28;20821;-50
2022/09/01 02:13:56;;;;;;;4.20;3.80;;;15.40;1.00;;;;;;5097571;28;20531;-50
2022/09/01 02:16:25;;;;;;;5.90;4.47;;;15.30;1.00;;;;;;5098203;28;20900;-53
2022/09/01 02:18:55;;;;;;;5.00;4.33;;;15.30;1.00;;;;;;5098404;28;20460;-52
2022/09/01 02:21:23;;;;;;;5.00;3.90;;;15.30;1.00;;;;;;5098526;28;20517;-54
2022/09/01 02:23:58;;;;;;;5.00;3.63;;;15.30;1.00;;;;;;5098126;28;20480;-49
2022/09/01 02:26:30;;;;;;;4.80;4.40;;;15.20;1.00;;;;;;5097794;28;20550;-52
2022/09/01 02:29:00;;;;;;;4.90;3.53;;;15.20;1.00;;;;;;5098371;28;20875;-55
2022/09/01 02:31:28;;;;;;;4.27;3.90;;;15.10;1.00;;;;;;5098188;28;20521;-54
2022/09/01 02:33:56;;;;;;;7.43;5.30;;;15.00;1.00;;;;;;5098088;28;20825;-51
2022/09/01 02:36:25;;;;;;;4.03;3.63;;;15.00;1.00;;;;;;5098249;28;20980;-54
2022/09/01 02:38:53;;;;;;;8.13;4.10;;;14.90;1.00;;;;;;5097426;28;20817;-49
2022/09/01 02:41:27;;;;;;;7.20;4.10;;;14.90;1.00;;;;;;5098160;28;20442;-51
2022/09/01 02:43:59;;;;;;;6.57;4.47;;;14.90;1.00;;;;;;5097376;28;20468;-55
2022/09/01 02:46:26;;;;;;;8.50;4.00;;;14.90;1.00;;;;;;5098331;28;20469;-56
2022/09/01 02:48:54;;;;;;;5.17;4.10;;;14.80;1.00;;;;;;5097485;28;20441;-51
2022/09/01 02:51:28;;;;;;;4.87;3.60;;;14.70;1.00;;;;;;5097957;28;20900;-53
2022/09/01 02:53:56;;;;;;;8.40;4.17;;;14.60;1.00;;;;;;5097699;28;20498;-50
2022/09/01 02:56:26;;;;;;;7.10;4.33;;;14.60;1.00;;;;;;5097036;28;20454;-50
2022/09/01 02:58:53;;;;;;;5.17;4.17;;;14.60;1.00;;;;;;5097941;28;20448;-51
2022/09/01 03:01:28;;;;;;;4.47;4.07;;;14.50;1.00;;;;;;5097693;28;20460;-53
2022/09/01 03:04:00;;;;;;;4.67;3.70;;;14.50;1.00;;;;;;5097552;28;20788;-53
2022/09/01 03:06:28;;;;;;;4.53;3.90;;;14.40;1.00;;;;;;5097799;28;20456;-48
2022/09/01 03:08:58;;;;;;;5.70;5.20;;;14.40;1.00;;;;;;5097356;28;20464;-49
2022/09/01 03:11:26;;;;;;;5.20;3.83;;;14.30;1.00;;;;;;5097417;28;20460;-48
2022/09/01 03:13:56;;;;;;;6.37;4.10;;;14.30;1.00;;;;;;5096917;28;20492;-50
2022/09/01 03:16:25;;;;;;;6.13;4.63;;;14.30;1.00;;;;;;5097270;28;20488;-53
2022/09/01 03:18:56;;;;;;;4.40;3.93;;;14.20;1.00;;;;;;5097626;28;20467;-51
2022/09/01 03:21:24;;;;;;;6.57;4.07;;;14.20;1.00;;;;;;5097360;28;20458;-56
2022/09/01 03:23:54;;;;;;;4.60;4.03;;;14.20;1.00;;;;;;5096301;28;20480;-54
2022/09/01 03:26:24;;;;;;;4.43;3.47;;;14.20;1.00;;;;;;5097273;28;20464;-54
2022/09/01 03:28:52;;;;;;;4.80;3.70;;;14.20;1.00;;;;;;5097863;28;20803;-49
2022/09/01 03:31:21;;;;;;;4.87;3.80;;;14.20;1.00;;;;;;5096670;28;20457;-50
2022/09/01 03:33:49;;;;;;;8.63;3.73;;;14.10;1.00;;;;;;5097682;28;20520;-55
2022/09/01 03:36:20;;;;;;;4.10;3.70;;;14.20;1.00;;;;;;5096982;28;20461;-53
2022/09/01 03:38:50;;;;;;;4.53;4.10;;;14.10;1.00;;;;;;5097334;28;20464;-54
2022/09/01 03:41:20;;;;;;;3.90;3.50;;;14.10;1.00;;;;;;5096714;28;20437;-57
2022/09/01 03:43:53;;;;;;;6.97;4.07;;;14.10;1.00;;;;;;5099749;28;20456;-53
2022/09/01 03:46:21;;;;;;;4.90;3.97;;;14.00;1.00;;;;;;5103495;28;20790;-50
2022/09/01 03:49:00;;;;;;;5.13;4.63;;;14.00;1.00;;;;;;5103031;28;20550;-51
2022/09/01 03:51:30;;;;;;;4.37;3.60;;;14.00;1.00;;;;;;5102746;28;20438;-53
2022/09/01 03:53:58;;;;;;;6.27;3.80;;;14.00;1.00;;;;;;5103236;28;20776;-51
2022/09/01 03:56:32;;;;;;;5.90;4.97;;;14.00;1.00;;;;;;5103832;28;20537;-50
2022/09/01 03:59:03;;;;;;;4.17;3.87;;;13.90;1.00;;;;;;5104195;28;20896;-55
2022/09/01 04:01:36;;;;;;;5.30;3.93;;;13.90;1.00;;;;;;5104109;28;20436;-52
2022/09/01 04:04:05;;;;;;;5.03;4.53;;;13.80;1.00;;;;;;5102902;28;20491;-56
2022/09/01 04:06:32;;;;;;;5.27;4.27;;;13.80;1.00;;;;;;5103504;28;20510;-53
2022/09/01 04:09:02;;;;;;;5.53;4.23;;;13.80;1.00;;;;;;5104336;28;20513;-51
2022/09/01 04:11:37;;;;;;;4.73;4.30;;;13.70;1.00;;;;;;5103067;28;20460;-51
2022/09/01 04:14:04;;;;;;;4.83;4.30;;;13.60;1.00;;;;;;5102213;28;20492;-51
2022/09/01 04:19:26;;;;;;;4.33;3.90;;;13.60;1.00;;;;;;5103782;28;20435;-52
2022/09/01 04:21:56;;;;;;;4.57;4.17;;;13.60;1.00;;;;;;5103026;28;20466;-51
2022/09/01 04:24:27;;;;;;;7.90;4.57;;;13.60;1.00;;;;;;5103043;28;20439;-50
2022/09/01 04:26:57;;;;;;;5.60;4.20;;;13.60;1.00;;;;;;5102987;28;20486;-53
2022/09/01 04:29:27;;;;;;;4.90;4.40;;;13.60;1.00;;;;;;5103659;28;20460;-51
2022/09/01 04:31:55;;;;;;;8.67;5.10;;;13.50;1.00;;;;;;5103139;28;20816;-55
2022/09/01 04:34:36;;;;;;;4.10;3.67;;;13.60;1.00;;;;;;5103626;28;20549;-48
2022/09/01 04:37:07;;;;;;;4.83;4.10;;;13.50;1.00;;;;;;5102911;28;20465;-55
2022/09/01 04:39:37;;;;;;;6.97;4.47;;;13.50;1.00;;;;;;5103830;28;20736;-51
2022/09/01 04:42:07;;;;;;;4.70;4.30;;;13.50;1.00;;;;;;5102736;28;20460;-52
2022/09/01 04:44:35;;;;;;;5.40;4.90;;;13.40;1.00;;;;;;5103268;28;20438;-50
2022/09/01 04:47:04;;;;;;;4.87;4.37;;;13.40;1.00;;;;;;5103037;28;20460;-49
2022/09/01 04:49:38;;;;;;;4.67;3.67;;;13.40;1.00;;;;;;5103243;28;20471;-52
2022/09/01 04:52:08;;;;;;;5.33;4.77;;;13.30;1.00;;;;;;5103085;28;20525;-51
2022/09/01 04:54:39;;;;;;;4.93;4.13;;;13.30;1.00;;;;;;5103100;28;20463;-51
2022/09/01 04:57:07;;;;;;;6.20;4.80;;;13.20;1.00;;;;;;5100363;28;20964;-53
2022/09/01 04:59:35;;;;;;;7.43;4.37;;;13.20;1.00;;;;;;5100095;28;20476;-52
2022/09/01 05:02:08;;;;;;;7.93;4.00;;;13.10;1.00;;;;;;5099476;28;20460;-48
2022/09/01 05:04:39;;;;;;;8.57;4.20;;;13.20;1.00;;;;;;5099848;28;20559;-55
2022/09/01 05:07:07;;;;;;;6.97;5.30;;;13.20;1.00;;;;;;5100424;28;20467;-51
2022/09/01 05:09:37;;;;;;;4.70;4.30;;;13.10;1.00;;;;;;5099836;28;20457;-56
2022/09/01 05:12:10;;;;;;;4.93;4.40;;;13.20;1.00;;;;;;5099370;28;20800;-52
2022/09/01 05:14:39;;;;;;;3.57;3.27;;;13.20;1.00;;;;;;5100047;28;20921;-53
2022/09/01 05:17:09;;;;;;;4.40;4.00;;;13.20;1.00;;;;;;5099889;28;20460;-49
2022/09/01 05:19:39;;;;;;;6.80;4.00;;;13.20;1.00;;;;;;5099700;28;20729;-57
2022/09/01 05:22:08;;;;;;;4.73;4.33;;;13.20;1.00;;;;;;5079311;28;20819;-50
2022/09/01 05:24:37;;;;;;;6.03;4.03;;;13.20;1.00;;;;;;5085855;28;20742;-50
2022/09/01 05:27:05;;;;;;;5.30;4.50;;;13.30;1.00;;;;;;5098727;28;20496;-52
2022/09/01 05:29:37;;;;;;;4.73;4.13;;;13.30;1.00;;;;;;5098080;28;20457;-49
2022/09/01 05:32:07;;;;;;;6.40;4.80;;;13.30;10.40;;;;;;5093945;28;20473;-52
2022/09/01 05:34:37;;;;;;;5.83;5.00;;;13.40;28.30;;;;;;5097075;28;20459;-49
2022/09/01 05:37:13;;;;;;;6.07;4.73;;;13.50;36.90;;;;;;5098128;28;20994;-48
2022/09/01 05:39:41;;;;;;;6.13;4.10;;;13.50;42.00;;;;;;5095717;28;20452;-49
2022/09/01 05:42:14;;;;;;;4.83;4.33;;;13.60;1.00;;;;;;5095498;28;20456;-52
2022/09/01 05:44:43;;;;;;;5.30;4.40;;;13.70;1.00;;;;;;5078796;28;20457;-54
2022/09/01 05:47:12;;;;;;;6.33;4.53;;;13.90;1.00;;;;;;5098716;28;20465;-56
2022/09/01 05:49:39;;;;;;;4.97;4.47;;;14.10;1.00;;;;;;5088709;28;20473;-56
2022/09/01 05:52:11;;;;;;;7.47;5.43;;;14.20;1.00;;;;;;5086876;28;20785;-52
2022/09/01 05:54:41;;;;;;;5.80;4.83;;;14.30;1.00;;;;;;5098328;28;20486;-54
2022/09/01 05:57:10;;;;;;;6.00;4.60;;;14.40;1.00;;;;;;5097885;28;20889;-52
2022/09/01 05:59:40;;;;;;;7.00;5.30;;;14.50;1.00;;;;;;5098852;28;20480;-54
2022/09/01 06:02:12;;;;;;;6.80;5.23;;;14.60;1.00;;;;;;5098241;28;20517;-52
2022/09/01 06:04:42;;;;;;;6.10;5.40;;;14.70;1.00;;;;;;5098423;28;20547;-53
2022/09/01 06:07:16;;;;;;;7.27;5.40;;;14.90;1.00;;;;;;5098791;28;20735;-51
2022/09/01 06:09:48;;;;;;;9.80;5.63;;;14.90;1.00;;;;;;5098255;28;20460;-51
2022/09/01 06:12:23;;;;;;;5.87;5.10;;;15.10;1.00;;;;;;5096655;28;20435;-51
2022/09/01 06:14:53;;;;;;;4.67;4.17;;;15.10;1.00;;;;;;5097686;28;21006;-54
2022/09/01 06:17:23;;;;;;;5.47;4.93;;;15.30;1.00;;;;;;5097958;28;20930;-58
2022/09/01 06:19:54;;;;;;;5.07;4.40;;;15.40;1.00;;;;;;5097932;28;20471;-55
2022/09/01 06:22:31;;;;;;;11.23;5.33;;;15.60;1.00;;;;;;5096932;28;20553;-50
2022/09/01 06:24:59;;;;;;;5.93;4.63;;;15.90;1.00;;;;;;5097311;28;20457;-56
2022/09/01 06:27:29;;;;;;;6.70;4.60;;;16.20;1.00;;;;;;5098437;28;20720;-55
2022/09/01 06:29:58;;;;;;;6.20;4.77;;;16.50;1.00;;;;;;5098263;28;20731;-51
2022/09/01 06:32:26;;;;;;;5.90;3.63;;;16.70;1.00;;;;;;5098265;28;20461;-54
2022/09/01 06:34:56;;;;;;;4.83;4.13;;;17.00;99.90;;;;;;5094446;28;20458;-55
2022/09/01 06:37:25;;;;;;;8.03;4.00;;;17.10;99.90;;;;;;5096555;28;20915;-53
2022/09/01 06:39:56;;;;;;;6.63;3.20;;;17.30;99.90;;;;;;5096983;28;20510;-54
2022/09/01 06:42:36;;;;;;;6.10;3.67;;;17.40;99.90;;;;;;5098265;28;20870;-57
2022/09/01 06:45:09;;;;;;;4.07;3.50;;;17.60;99.90;;;;;;5096484;28;20872;-55
2022/09/01 06:47:39;;;;;;;17.40;5.40;;;18.00;99.90;;;;;;5096618;28;20472;-56
2022/09/01 06:50:10;;;;;;;7.00;3.20;;;18.40;99.90;;;;;;5096312;28;20530;-59
2022/09/01 06:52:39;;;;;;;3.73;3.20;;;18.70;99.90;;;;;;5097213;28;20464;-56
2022/09/01 06:55:07;;;;;;;3.93;3.07;;;18.70;99.90;;;;;;5097074;28;20791;-59
2022/09/01 06:57:36;;;;;;;3.07;2.80;;;18.80;99.90;;;;;;5097108;28;20496;-54
2022/09/01 07:00:16;;;;;;;5.30;3.13;;;19.10;99.90;;;;;;5097300;28;20887;-56
2022/09/01 07:02:44;;;;;;;5.10;3.30;;;19.30;99.90;;;;;;5097452;28;20525;-56
2022/09/01 07:05:16;;;;;;;5.23;3.10;;;19.50;99.90;;;;;;5097897;28;20980;-56
2022/09/01 07:07:50;;;;;;;3.73;2.50;;;19.70;99.90;;;;;;5097109;28;21005;-58
2022/09/01 07:10:19;;;;;;;2.43;2.20;;;20.10;99.90;;;;;;5097107;28;20460;-59
2022/09/01 07:12:51;;;;;;;3.40;3.10;;;20.20;99.90;;;;;;5096300;28;20460;-57
2022/09/01 07:15:19;;;;;;;3.97;3.20;;;20.40;99.90;;;;;;5096526;28;20466;-56
2022/09/01 07:17:54;;;;;;;4.27;3.10;;;20.60;99.90;;;;;;5095305;28;20435;-57
2022/09/01 07:20:25;;;;;;;4.03;2.70;;;20.80;99.90;;;;;;5096247;28;20988;-52
2022/09/01 07:22:56;;;;;;;4.77;3.10;;;21.10;99.90;;;;;;5097273;28;20488;-59
2022/09/01 07:25:26;;;;;;;3.37;2.77;;;21.10;99.90;;;;;;5097750;28;20957;-58
2022/09/01 07:27:55;;;;;;;3.03;2.27;;;21.10;99.90;;;;;;5096635;28;20471;-56
2022/09/01 07:30:25;;;;;;;2.80;2.60;;;20.90;99.90;;;;;;5096993;28;20504;-56
2022/09/01 07:32:52;;;;;;;3.73;3.00;;;21.10;99.90;;;;;;5097573;28;20461;-56
2022/09/01 07:35:22;;;;;;;2.90;2.30;;;21.30;99.90;;;;;;5096870;28;20498;-58
2022/09/01 07:37:51;;;;;;;4.10;2.73;;;21.50;99.90;;;;;;5095962;28;20465;-52
2022/09/01 07:40:21;;;;;;;2.77;2.17;;;21.80;99.90;;;;;;5097594;28;20456;-59
2022/09/01 07:42:48;;;;;;;2.70;2.50;;;22.00;99.90;;;;;;5096872;28;20962;-58
2022/09/01 07:45:18;;;;;;;3.30;2.93;;;22.30;99.90;;;;;;5096641;28;20472;-59
2022/09/01 07:47:46;;;;;;;3.17;2.60;;;22.60;99.90;;;;;;5096256;28;20684;-57
2022/09/01 07:50:14;;;;;;;3.40;2.50;;;22.90;99.90;;;;;;5096902;28;20456;-59
2022/09/01 07:52:42;;;;;;;3.27;2.60;;;22.80;99.90;;;;;;5096748;28;20463;-59
2022/09/01 07:55:13;;;;;;;3.23;2.20;;;23.20;99.90;;;;;;5097180;28;20472;-59
2022/09/01 07:57:44;;;;;;;4.27;2.77;;;23.10;99.90;;;;;;5097591;28;20456;-58
2022/09/01 08:00:16;;;;;;;2.50;2.30;;;23.50;99.90;;;;;;5096377;28;20984;-59
2022/09/01 08:02:49;;;;;;;3.23;2.93;;;23.70;99.90;;;;;;5097160;28;20468;-59
2022/09/01 08:05:21;;;;;;;4.10;2.73;;;23.50;99.90;;;;;;5097603;28;20521;-59
2022/09/01 08:07:49;;;;;;;3.27;2.40;;;23.40;99.90;;;;;;5096905;28;20468;-58
2022/09/01 08:10:17;;;;;;;2.60;2.40;;;23.80;99.90;;;;;;5096052;28;20474;-58
2022/09/01 08:12:48;;;;;;;3.77;2.53;;;23.50;99.90;;;;;;5096793;28;20464;-56
2022/09/01 08:15:19;;;;;;;2.47;2.27;;;24.10;99.90;;;;;;5095842;28;20920;-59
2022/09/01 08:17:49;;;;;;;2.73;2.23;;;24.20;99.90;;;;;;5095303;28;20459;-58
2022/09/01 08:20:16;;;;;;;3.47;2.10;;;24.00;99.90;;;;;;5095730;28;20500;-59
2022/09/01 08:22:44;;;;;;;5.23;2.20;;;24.20;99.90;;;;;;5095699;28;20500;-59
2022/09/01 08:25:11;;;;;;;3.00;2.30;;;24.30;99.90;;;;;;5096934;28;20466;-58
2022/09/01 08:27:44;;;;;;;2.30;2.07;;;24.20;99.90;;;;;;5096124;28;20430;-58
2022/09/01 08:30:16;;;;;;;2.67;2.30;;;23.90;99.90;;;;;;5095640;28;20468;-57
2022/09/01 08:32:43;;;;;;;2.60;2.30;;;24.50;99.90;;;;;;5098571;28;20925;-57
2022/09/01 08:35:11;;;;;;;3.00;2.37;;;24.60;99.90;;;;;;5098723;28;20518;-58
2022/09/01 08:37:41;;;;;;;2.27;2.07;;;24.60;99.90;;;;;;5095329;28;20550;-59
2022/09/01 08:40:13;;;;;;;2.23;2.00;;;24.90;99.90;;;;;;5097878;28;20927;-59
2022/09/01 08:42:53;;;;;;;2.93;2.30;;;25.50;99.90;;;;;;5095041;28;20819;-59
2022/09/01 08:45:30;;;;;;;5.37;2.50;;;25.80;99.90;;;;;;5096026;28;20475;-59
2022/09/01 08:48:08;;;;;;;2.33;2.13;;;25.80;99.90;;;;;;5095448;28;20483;-53
2022/09/01 08:50:41;;;;;;;3.30;2.20;;;25.70;99.90;;;;;;5096426;28;20776;-59
2022/09/01 08:53:20;;;;;;;4.50;1.87;;;26.00;99.90;;;;;;5097319;28;20952;-58
2022/09/01 08:55:55;;;;;;;3.33;2.00;;;25.80;99.90;;;;;;5095870;28;20492;-58
2022/09/01 08:58:29;;;;;;;2.50;2.30;;;25.90;99.90;;;;;;5096388;28;20903;-56
2022/09/01 09:01:20;;;;;;;2.10;2.00;;;26.20;99.90;;;;;;5095396;28;20766;-56
2022/09/01 09:03:58;;;;;;;5.87;2.10;;;26.10;99.90;;;;;;5096222;28;20491;-58
2022/09/01 09:06:43;;;;;;;2.33;2.07;;;25.70;99.90;;;;;;5094793;28;20513;-58
2022/09/01 09:09:11;;;;;;;2.60;2.40;;;25.60;99.90;;;;;;5097311;28;20913;-59
2022/09/01 09:12:09;;;;;;;2.33;2.13;;;25.30;99.90;;;;;;5094752;28;20507;-60
2022/09/01 09:15:06;;;;;;;2.30;2.10;;;25.40;99.90;;;;;;5097022;28;20484;-57
2022/09/01 09:17:41;;;;;;;2.20;2.00;;;26.00;99.90;;;;;;5090798;28;20749;-58
2022/09/01 09:20:09;;;;;;;3.17;2.10;;;26.30;99.90;;;;;;5095720;28;20523;-59
2022/09/01 09:22:43;;;;;;;4.30;1.80;;;26.60;99.90;;;;;;5094211;28;20495;-59
2022/09/01 09:25:16;;;;;;;2.10;1.90;;;27.20;99.90;;;;;;5097854;28;20548;-56
2022/09/01 09:27:48;;;;;;;2.07;1.87;;;27.70;99.90;;;;;;5096217;28;20538;-60
2022/09/01 09:30:26;;;;;;;2.50;2.10;;;27.90;99.90;;;;;;5097173;28;20457;-59
2022/09/01 09:32:59;;;;;;;2.50;2.30;;;27.70;99.90;;;;;;5097488;28;20450;-60
2022/09/01 09:35:32;;;;;;;2.70;1.80;;;27.50;99.90;;;;;;5097977;28;20448;-60
2022/09/01 09:38:21;;;;;;;2.00;1.30;;;27.80;99.90;;;;;;5095256;28;20456;-57
2022/09/01 09:41:02;;;;;;;2.03;1.83;;;27.00;99.90;;;;;;5096933;28;20442;-53
2022/09/01 09:43:33;;;;;;;2.70;2.20;;;26.90;99.90;;;;;;5096114;28;20546;-53
2022/09/01 09:46:28;;;;;;;2.40;2.20;;;27.40;99.90;;;;;;5095251;28;20458;-57
2022/09/01 09:49:18;;;;;;;2.00;1.90;;;27.70;99.90;;;;;;5094513;28;20423;-56
2022/09/01 09:51:48;;;;;;;2.30;2.10;;;28.10;99.90;;;;;;5095805;28;20776;-57
2022/09/01 09:54:22;;;;;;;2.70;2.40;;;28.20;99.90;;;;;;5096196;28;20473;-60
2022/09/01 09:57:05;;;;;;;3.60;2.00;;;28.50;99.90;;;;;;5096818;28;20846;-59
2022/09/01 09:59:38;;;;;;;2.37;2.17;;;28.30;99.90;;;;;;5096674;28;20492;-59
2022/09/01 10:02:24;;;;;;;2.63;2.43;;;28.60;99.90;;;;;;5096748;28;20539;-56
2022/09/01 10:04:54;;;;;;;2.50;2.30;;;28.80;99.90;;;;;;5096009;28;20460;-56
2022/09/01 10:07:34;;;;;;;3.53;1.93;;;28.70;99.90;;;;;;5094768;28;20456;-54
2022/09/01 10:10:05;;;;;;;3.47;2.10;;;28.80;99.90;;;;;;5094770;28;20431;-56
2022/09/01 10:12:34;;;;;;;2.47;2.00;;;29.00;99.90;;;;;;5097244;28;20547;-55
2022/09/01 10:15:05;;;;;;;2.37;2.27;;;28.80;99.90;;;;;;5095824;28;20878;-56
2022/09/01 10:17:38;;;;;;;1.80;1.70;;;29.20;99.90;;;;;;5096098;28;20491;-53
2022/09/01 10:20:15;;;;;;;3.10;2.10;;;29.50;99.90;;;;;;5093508;28;20431;-57
2022/09/01 10:22:51;;;;;;;2.40;2.20;;;29.60;99.90;;;;;;5092286;28;20487;-50
2022/09/01 10:25:21;;;;;;;3.40;2.37;;;29.60;99.90;;;;;;5084480;28;20439;-54
2022/09/01 10:27:56;;;;;;;2.20;2.00;;;30.10;99.90;;;;;;5092128;28;20434;-52
2022/09/01 10:30:23;;;;;;;2.37;2.27;;;30.50;99.90;;;;;;5093579;28;20804;-53
2022/09/01 10:32:54;;;;;;;2.93;2.60;;;30.10;99.90;;;;;;5092732;28;20555;-55
2022/09/01 10:35:26;;;;;;;2.50;2.30;;;29.10;99.90;;;;;;5089709;28;20642;-57
2022/09/01 10:37:58;;;;;;;2.80;2.50;;;29.20;99.90;;;;;;5091832;28;20579;-56
2022/09/01 10:40:44;;;;;;;2.50;2.30;;;29.70;99.90;;;;;;5091793;28;20500;-53
2022/09/01 10:43:35;;;;;;;5.00;2.63;;;29.60;99.90;;;;;;5092055;28;20965;-52
2022/09/01 10:46:44;;;;;;;2.30;2.10;;;29.00;99.90;;;;;;5092398;28;20456;-54
2022/09/01 10:49:48;;;;;;;2.23;2.00;;;29.30;99.90;;;;;;5094257;28;20513;-50
2022/09/01 10:52:48;;;;;;;2.33;2.20;;;28.20;99.90;;;;;;5095155;28;20422;-54
2022/09/01 10:55:23;;;;;;;3.30;2.63;;;29.20;99.90;;;;;;5096254;28;20905;-51
2022/09/01 10:58:01;;;;;;;1.90;1.80;;;29.70;99.90;;;;;;5095118;28;20495;-55
2022/09/01 11:00:52;;;;;;;2.80;2.57;;;29.40;99.90;;;;;;5094557;28;20452;-50
2022/09/01 11:03:55;;;;;;;3.40;2.23;;;29.10;99.90;;;;;;5092739;28;20448;-59
2022/09/01 11:07:01;;;;;;;2.70;2.50;;;29.20;99.90;;;;;;5086442;28;20960;-56
2022/09/01 11:09:32;;;;;;;4.03;2.10;;;30.30;99.90;;;;;;5095390;28;20439;-51
2022/09/01 11:12:38;;;;;;;2.30;2.20;;;30.70;99.90;;;;;;5092909;28;20563;-54
2022/09/01 11:15:36;;;;;;;2.60;2.40;;;31.20;99.90;;;;;;5087845;28;20460;-55
2022/09/01 11:18:09;;;;;;;2.53;1.93;;;31.60;99.90;;;;;;5093475;28;20484;-56
2022/09/01 11:20:39;;;;;;;3.77;2.43;;;31.70;99.90;;;;;;5095138;28;20450;-56
2022/09/01 11:23:13;;;;;;;2.63;2.43;;;31.90;99.90;;;;;;5093323;28;20936;-49
2022/09/01 11:25:45;;;;;;;2.33;2.23;;;32.20;99.90;;;;;;5091574;28;20434;-48
2022/09/01 11:28:47;;;;;;;3.40;2.33;;;32.40;99.90;;;;;;5093856;28;20434;-57
2022/09/01 11:31:39;;;;;;;2.50;2.40;;;32.20;99.90;;;;;;5094197;28;20426;-52
2022/09/01 11:34:18;;;;;;;2.50;2.30;;;31.60;99.90;;;;;;5093598;28;20539;-57
2022/09/01 11:37:12;;;;;;;2.60;2.40;;;29.70;99.90;;;;;;5093854;28;20465;-57
2022/09/01 11:39:48;;;;;;;2.27;2.17;;;29.60;99.90;;;;;;5092879;28;20517;-57
2022/09/01 11:42:20;;;;;;;2.43;2.30;;;30.00;99.90;;;;;;5094739;28;20448;-49
2022/09/01 11:44:52;;;;;;;2.70;2.50;;;29.60;99.90;;;;;;5091032;28;20487;-56
2022/09/01 11:47:27;;;;;;;2.23;2.03;;;29.60;99.90;;;;;;5092864;28;20876;-56
2022/09/01 11:49:56;;;;;;;2.77;2.57;;;29.50;99.90;;;;;;5093983;28;20423;-54
2022/09/01 11:52:28;;;;;;;2.33;1.80;;;28.70;99.90;;;;;;5094963;28;20761;-57
2022/09/01 11:55:01;;;;;;;2.60;2.40;;;28.90;99.90;;;;;;5095059;28;20453;-57
2022/09/01 11:57:30;;;;;;;2.77;2.57;;;29.80;99.90;;;;;;5095814;28;20488;-55
2022/09/01 12:00:02;;;;;;;2.40;2.10;;;30.50;99.90;;;;;;5094700;28;20551;-57
2022/09/01 12:02:32;;;;;;;2.80;2.60;;;30.70;99.90;;;;;;5095029;28;20460;-56
2022/09/01 12:05:04;;;;;;;2.50;2.30;;;31.30;99.90;;;;;;5094089;28;20810;-57
2022/09/01 12:07:43;;;;;;;2.77;2.57;;;31.60;99.90;;;;;;5099627;28;20427;-55
2022/09/01 12:10:20;;;;;;;2.73;2.53;;;31.00;99.90;;;;;;5097140;28;20877;-53
2022/09/01 12:12:59;;;;;;;2.10;2.00;;;30.10;99.90;;;;;;5096291;28;20467;-57
2022/09/01 12:15:27;;;;;;;2.33;2.13;;;29.30;99.90;;;;;;5095662;28;20465;-53
2022/09/01 12:18:10;;;;;;;3.00;2.80;;;28.50;99.90;;;;;;5096398;28;20828;-54
2022/09/01 12:20:38;;;;;;;4.33;2.30;;;27.80;99.90;;;;;;5094416;28;20474;-56
2022/09/01 12:23:21;;;;;;;3.10;2.90;;;27.40;99.90;;;;;;5097626;28;20863;-55
2022/09/01 12:25:48;;;;;;;2.90;2.37;;;27.30;99.90;;;;;;5095255;28;20443;-56
2022/09/01 12:28:15;;;;;;;3.63;2.60;;;28.20;99.90;;;;;;5095597;28;20998;-53
2022/09/01 12:30:43;;;;;;;3.57;2.80;;;29.10;99.90;;;;;;5096251;28;20474;-54
2022/09/01 12:33:14;;;;;;;2.93;2.40;;;28.50;99.90;;;;;;5094614;28;20963;-53
2022/09/01 12:35:41;;;;;;;2.93;2.27;;;28.70;99.90;;;;;;5095417;28;20426;-55
2022/09/01 12:38:32;;;;;;;2.30;2.10;;;29.40;99.90;;;;;;5094712;28;20774;-57
2022/09/01 12:41:04;;;;;;;2.63;2.37;;;28.60;99.90;;;;;;5079107;28;20452;-57
2022/09/01 12:43:35;;;;;;;2.50;2.30;;;28.30;99.90;;;;;;5096580;28;20554;-55
2022/09/01 12:46:05;;;;;;;2.20;2.10;;;28.00;99.90;;;;;;5093707;28;20452;-56
2022/09/01 12:48:36;;;;;;;2.97;2.77;;;28.10;99.90;;;;;;5096776;28;20476;-56
2022/09/01 12:51:08;;;;;;;3.03;2.73;;;28.30;99.90;;;;;;5094345;28;20426;-56
2022/09/01 12:53:35;;;;;;;2.50;2.30;;;28.30;99.90;;;;;;5095754;28;20458;-55
2022/09/01 12:56:25;;;;;;;2.77;2.50;;;29.10;99.90;;;;;;5097017;28;20430;-57
2022/09/01 12:59:08;;;;;;;3.10;2.40;;;29.80;99.90;;;;;;5093015;28;20468;-57
2022/09/01 13:01:38;;;;;;;2.87;2.67;;;30.70;99.90;;;;;;5090423;28;20467;-57
2022/09/01 13:04:23;;;;;;;2.90;2.70;;;29.90;99.90;;;;;;5098094;28;20456;-56
2022/09/01 13:06:51;;;;;;;2.23;2.00;;;30.50;99.90;;;;;;5095909;28;20452;-57
2022/09/01 13:09:19;;;;;;;7.00;2.37;;;30.90;99.90;;;;;;5095736;28;20540;-57
2022/09/01 13:11:47;;;;;;;3.00;2.80;;;31.50;99.90;;;;;;5097838;28;20935;-55
2022/09/01 13:14:15;;;;;;;3.20;2.60;;;31.50;99.90;;;;;;5098387;28;20770;-57
2022/09/01 13:16:43;;;;;;;3.00;2.80;;;31.40;99.90;;;;;;5096567;28;20998;-57
2022/09/01 13:19:10;;;;;;;3.17;2.87;;;30.50;99.90;;;;;;5098019;28;20464;-54
2022/09/01 13:21:43;;;;;;;2.83;2.63;;;29.70;99.90;;;;;;5097377;28;20556;-57
2022/09/01 13:24:10;;;;;;;4.30;2.50;;;29.30;99.90;;;;;;5097938;28;20578;-55
2022/09/01 13:26:38;;;;;;;2.17;2.07;;;28.30;99.90;;;;;;5097379;28;20448;-54